sensor_id;sensor_type;location;lat;lon;timestamp;pressure;altitude;pressure_sealevel;temperature;humidity
64679;BME280;51094;53.864;27.676;2024-03-17T00:00:50;98864.78;;;7.87;70.17
64679;BME280;51094;53.864;27.676;2024-03-17T00:03:16;98857.53;;;7.92;69.89
64679;BME280;51094;53.864;27.676;2024-03-17T00:05:42;98835.78;;;7.69;69.31
64679;BME280;51094;53.864;27.676;2024-03-17T00:08:08;98857.34;;;7.95;69.30
64679;BME280;51094;53.864;27.676;2024-03-17T00:10:34;98777.31;;;7.40;69.73
64679;BME280;51094;53.864;27.676;2024-03-17T00:13:00;98848.81;;;7.80;69.36
64679;BME280;51094;53.864;27.676;2024-03-17T00:15:27;98814.59;;;7.50;69.61
64679;BME280;51094;53.864;27.676;2024-03-17T00:17:54;98803.00;;;7.43;69.40
64679;BME280;51094;53.864;27.676;2024-03-17T00:20:20;98775.75;;;7.24;70.34
64679;BME280;51094;53.864;27.676;2024-03-17T00:22:50;98837.09;;;7.62;69.89
64679;BME280;51094;53.864;27.676;2024-03-17T00:25:19;98783.94;;;7.31;70.77
64679;BME280;51094;53.864;27.676;2024-03-17T00:27:45;98758.53;;;7.11;70.38
64679;BME280;51094;53.864;27.676;2024-03-17T00:30:13;98833.88;;;7.58;71.21
64679;BME280;51094;53.864;27.676;2024-03-17T00:32:40;98843.41;;;7.58;71.10
64679;BME280;51094;53.864;27.676;2024-03-17T00:35:07;98835.97;;;7.66;71.32
64679;BME280;51094;53.864;27.676;2024-03-17T00:37:33;98828.69;;;7.58;71.45
64679;BME280;51094;53.864;27.676;2024-03-17T00:40:02;98830.06;;;7.64;71.70
64679;BME280;51094;53.864;27.676;2024-03-17T00:42:29;98825.63;;;7.66;71.97
64679;BME280;51094;53.864;27.676;2024-03-17T00:44:56;98806.09;;;7.48;72.21
64679;BME280;51094;53.864;27.676;2024-03-17T00:47:22;98742.72;;;7.15;71.92
64679;BME280;51094;53.864;27.676;2024-03-17T00:49:48;98764.19;;;7.30;71.61
64679;BME280;51094;53.864;27.676;2024-03-17T00:52:16;98811.75;;;7.67;71.91
64679;BME280;51094;53.864;27.676;2024-03-17T00:54:46;98719.22;;;7.06;71.81
64679;BME280;51094;53.864;27.676;2024-03-17T00:57:13;98808.63;;;7.62;71.69
64679;BME280;51094;53.864;27.676;2024-03-17T00:59:39;98764.28;;;7.28;72.59
64679;BME280;51094;53.864;27.676;2024-03-17T01:02:05;98781.06;;;7.36;72.21
64679;BME280;51094;53.864;27.676;2024-03-17T01:04:33;98789.41;;;7.39;72.50
64679;BME280;51094;53.864;27.676;2024-03-17T01:07:00;98805.91;;;7.51;72.30
64679;BME280;51094;53.864;27.676;2024-03-17T01:09:26;98807.88;;;7.47;72.69
64679;BME280;51094;53.864;27.676;2024-03-17T01:11:52;98811.03;;;7.38;73.56
64679;BME280;51094;53.864;27.676;2024-03-17T01:14:18;98782.59;;;7.25;73.00
64679;BME280;51094;53.864;27.676;2024-03-17T01:16:46;98790.44;;;7.24;72.87
64679;BME280;51094;53.864;27.676;2024-03-17T01:19:12;98810.03;;;7.41;74.07
64679;BME280;51094;53.864;27.676;2024-03-17T01:21:38;98800.94;;;7.48;73.92
64679;BME280;51094;53.864;27.676;2024-03-17T01:24:07;98812.31;;;7.45;73.65
64679;BME280;51094;53.864;27.676;2024-03-17T01:26:33;98795.97;;;7.45;73.82
64679;BME280;51094;53.864;27.676;2024-03-17T01:28:59;98793.28;;;7.46;73.82
64679;BME280;51094;53.864;27.676;2024-03-17T01:31:25;98791.63;;;7.45;73.79
64679;BME280;51094;53.864;27.676;2024-03-17T01:33:51;98747.91;;;7.15;73.32
64679;BME280;51094;53.864;27.676;2024-03-17T01:36:17;98762.00;;;7.24;73.65
64679;BME280;51094;53.864;27.676;2024-03-17T01:38:44;98766.88;;;7.28;74.10
64679;BME280;51094;53.864;27.676;2024-03-17T01:41:10;98800.94;;;7.35;73.74
64679;BME280;51094;53.864;27.676;2024-03-17T01:43:36;98752.47;;;7.24;74.35
64679;BME280;51094;53.864;27.676;2024-03-17T01:46:05;98728.53;;;7.08;74.13
64679;BME280;51094;53.864;27.676;2024-03-17T01:48:31;98742.00;;;7.13;73.67
64679;BME280;51094;53.864;27.676;2024-03-17T01:50:57;98699.16;;;6.70;74.21
64679;BME280;51094;53.864;27.676;2024-03-17T01:53:25;98761.16;;;7.23;74.38
64679;BME280;51094;53.864;27.676;2024-03-17T01:55:54;98783.34;;;7.53;74.10
64679;BME280;51094;53.864;27.676;2024-03-17T01:58:25;98770.50;;;7.39;74.04
64679;BME280;51094;53.864;27.676;2024-03-17T02:00:51;98772.78;;;7.43;74.19
64679;BME280;51094;53.864;27.676;2024-03-17T02:03:17;98729.69;;;7.17;73.74
64679;BME280;51094;53.864;27.676;2024-03-17T02:05:44;98773.22;;;7.50;74.22
64679;BME280;51094;53.864;27.676;2024-03-17T02:08:11;98723.50;;;7.19;74.47
64679;BME280;51094;53.864;27.676;2024-03-17T02:10:37;98716.28;;;6.97;74.17
64679;BME280;51094;53.864;27.676;2024-03-17T02:13:04;98778.69;;;7.45;74.45
64679;BME280;51094;53.864;27.676;2024-03-17T02:15:32;98707.06;;;6.81;74.13
64679;BME280;51094;53.864;27.676;2024-03-17T02:17:59;98642.38;;;6.55;74.25
64679;BME280;51094;53.864;27.676;2024-03-17T02:20:25;98699.56;;;6.90;74.86
64679;BME280;51094;53.864;27.676;2024-03-17T02:23:11;98761.69;;;7.28;74.33
64679;BME280;51094;53.864;27.676;2024-03-17T02:25:38;98704.72;;;6.90;74.39
64679;BME280;51094;53.864;27.676;2024-03-17T02:28:06;98753.41;;;7.23;74.83
64679;BME280;51094;53.864;27.676;2024-03-17T02:30:32;98763.84;;;7.22;75.19
64679;BME280;51094;53.864;27.676;2024-03-17T02:32:58;98751.00;;;7.20;75.47
64679;BME280;51094;53.864;27.676;2024-03-17T02:35:24;98735.91;;;7.14;75.82
64679;BME280;51094;53.864;27.676;2024-03-17T02:37:50;98665.28;;;6.74;75.30
64679;BME280;51094;53.864;27.676;2024-03-17T02:40:17;98740.88;;;7.17;75.46
64679;BME280;51094;53.864;27.676;2024-03-17T02:42:45;98746.91;;;7.30;75.54
64679;BME280;51094;53.864;27.676;2024-03-17T02:45:11;98705.13;;;6.97;75.68
64679;BME280;51094;53.864;27.676;2024-03-17T02:47:40;98748.34;;;7.22;75.77
64679;BME280;51094;53.864;27.676;2024-03-17T02:50:07;98695.72;;;6.96;75.91
64679;BME280;51094;53.864;27.676;2024-03-17T02:52:35;98732.31;;;6.90;76.03
64679;BME280;51094;53.864;27.676;2024-03-17T02:55:01;98734.72;;;7.06;76.39
64679;BME280;51094;53.864;27.676;2024-03-17T02:57:27;98707.81;;;6.95;76.56
64679;BME280;51094;53.864;27.676;2024-03-17T02:59:56;98744.38;;;7.16;76.95
64679;BME280;51094;53.864;27.676;2024-03-17T03:02:23;98748.63;;;7.17;76.28
64679;BME280;51094;53.864;27.676;2024-03-17T03:04:50;98727.50;;;7.11;76.49
64679;BME280;51094;53.864;27.676;2024-03-17T03:07:16;98744.72;;;7.24;76.58
64679;BME280;51094;53.864;27.676;2024-03-17T03:09:42;98735.84;;;7.28;76.39
64679;BME280;51094;53.864;27.676;2024-03-17T03:12:08;98765.41;;;7.24;76.54
64679;BME280;51094;53.864;27.676;2024-03-17T03:14:34;98735.19;;;7.25;76.22
64679;BME280;51094;53.864;27.676;2024-03-17T03:17:00;98606.28;;;6.41;76.67
64679;BME280;51094;53.864;27.676;2024-03-17T03:19:27;98750.28;;;7.18;76.82
64679;BME280;51094;53.864;27.676;2024-03-17T03:21:53;98741.25;;;7.11;76.84
64679;BME280;51094;53.864;27.676;2024-03-17T03:24:22;98730.47;;;6.92;77.34
64679;BME280;51094;53.864;27.676;2024-03-17T03:26:48;98527.28;;;5.71;77.49
64679;BME280;51094;53.864;27.676;2024-03-17T03:29:14;98713.59;;;6.99;78.29
64679;BME280;51094;53.864;27.676;2024-03-17T03:31:41;98739.22;;;7.16;77.62
64679;BME280;51094;53.864;27.676;2024-03-17T03:34:07;98613.28;;;6.39;76.90
64679;BME280;51094;53.864;27.676;2024-03-17T03:36:38;98747.84;;;7.03;77.80
64679;BME280;51094;53.864;27.676;2024-03-17T03:39:04;98744.28;;;7.18;77.51
64679;BME280;51094;53.864;27.676;2024-03-17T03:41:31;98649.00;;;6.59;77.64
64679;BME280;51094;53.864;27.676;2024-03-17T03:43:58;98742.13;;;7.24;77.38
64679;BME280;51094;53.864;27.676;2024-03-17T03:46:25;98611.38;;;6.28;76.95
64679;BME280;51094;53.864;27.676;2024-03-17T03:48:52;98744.34;;;7.04;77.96
64679;BME280;51094;53.864;27.676;2024-03-17T03:51:21;98746.69;;;6.94;78.27
64679;BME280;51094;53.864;27.676;2024-03-17T03:53:47;98710.97;;;6.74;78.50
64679;BME280;51094;53.864;27.676;2024-03-17T03:56:13;98740.16;;;6.88;78.21
64679;BME280;51094;53.864;27.676;2024-03-17T03:58:42;98724.81;;;6.73;78.73
64679;BME280;51094;53.864;27.676;2024-03-17T04:01:10;98725.78;;;6.84;78.94
64679;BME280;51094;53.864;27.676;2024-03-17T04:03:41;98707.34;;;6.76;78.71
64679;BME280;51094;53.864;27.676;2024-03-17T04:06:09;98646.03;;;5.83;78.72
64679;BME280;51094;53.864;27.676;2024-03-17T04:08:38;98656.91;;;6.44;79.48
64679;BME280;51094;53.864;27.676;2024-03-17T04:11:10;98706.44;;;6.77;79.34
64679;BME280;51094;53.864;27.676;2024-03-17T04:13:37;98735.22;;;6.98;79.39
64679;BME280;51094;53.864;27.676;2024-03-17T04:16:06;98716.47;;;6.82;79.27
64679;BME280;51094;53.864;27.676;2024-03-17T04:18:33;98714.91;;;6.79;79.78
64679;BME280;51094;53.864;27.676;2024-03-17T04:21:05;98709.41;;;6.71;79.91
64679;BME280;51094;53.864;27.676;2024-03-17T04:23:32;98731.34;;;6.78;80.24
64679;BME280;51094;53.864;27.676;2024-03-17T04:26:04;98687.53;;;6.50;80.26
64679;BME280;51094;53.864;27.676;2024-03-17T04:28:33;98708.75;;;6.67;80.61
64679;BME280;51094;53.864;27.676;2024-03-17T04:31:05;98716.19;;;6.86;80.94
64679;BME280;51094;53.864;27.676;2024-03-17T04:33:34;98696.91;;;6.78;80.31
64679;BME280;51094;53.864;27.676;2024-03-17T04:36:02;98544.03;;;5.78;79.76
64679;BME280;51094;53.864;27.676;2024-03-17T04:38:28;98654.22;;;6.45;80.35
64679;BME280;51094;53.864;27.676;2024-03-17T04:40:54;98708.53;;;6.85;80.51
64679;BME280;51094;53.864;27.676;2024-03-17T04:43:35;98710.75;;;6.77;80.71
64679;BME280;51094;53.864;27.676;2024-03-17T04:46:03;98730.25;;;6.95;80.92
64679;BME280;51094;53.864;27.676;2024-03-17T04:48:30;98728.59;;;6.94;80.65
64679;BME280;51094;53.864;27.676;2024-03-17T04:50:58;98736.34;;;6.94;80.86
64679;BME280;51094;53.864;27.676;2024-03-17T04:53:30;98732.94;;;6.93;80.36
64679;BME280;51094;53.864;27.676;2024-03-17T04:56:04;98729.22;;;6.97;80.86
64679;BME280;51094;53.864;27.676;2024-03-17T04:58:32;98738.53;;;7.00;80.77
64679;BME280;51094;53.864;27.676;2024-03-17T05:01:03;98707.44;;;6.75;81.10
64679;BME280;51094;53.864;27.676;2024-03-17T05:03:30;98724.25;;;6.94;80.77
64679;BME280;51094;53.864;27.676;2024-03-17T05:06:02;98677.56;;;6.71;80.74
64679;BME280;51094;53.864;27.676;2024-03-17T05:08:30;98714.88;;;7.06;81.08
64679;BME280;51094;53.864;27.676;2024-03-17T05:11:03;98705.38;;;7.07;80.85
64679;BME280;51094;53.864;27.676;2024-03-17T05:13:40;98714.38;;;7.14;80.42
64679;BME280;51094;53.864;27.676;2024-03-17T05:16:06;98690.78;;;7.06;80.59
64679;BME280;51094;53.864;27.676;2024-03-17T05:18:33;98716.88;;;7.15;79.83
64679;BME280;51094;53.864;27.676;2024-03-17T05:21:00;98696.56;;;7.09;80.71
64679;BME280;51094;53.864;27.676;2024-03-17T05:23:36;98709.84;;;7.17;80.71
64679;BME280;51094;53.864;27.676;2024-03-17T05:26:03;98686.09;;;6.98;80.17
64679;BME280;51094;53.864;27.676;2024-03-17T05:28:33;98650.50;;;6.76;80.72
64679;BME280;51094;53.864;27.676;2024-03-17T05:30:59;98709.22;;;7.14;80.97
64679;BME280;51094;53.864;27.676;2024-03-17T05:33:26;98706.72;;;7.12;81.20
64679;BME280;51094;53.864;27.676;2024-03-17T05:38:20;98714.63;;;7.23;80.75
64679;BME280;51094;53.864;27.676;2024-03-17T05:43:22;98684.41;;;7.24;81.00
64679;BME280;51094;53.864;27.676;2024-03-17T05:46:09;98677.06;;;7.30;80.66
64679;BME280;51094;53.864;27.676;2024-03-17T05:48:37;98709.06;;;7.55;80.45
64679;BME280;51094;53.864;27.676;2024-03-17T05:51:05;98697.88;;;7.54;80.13
64679;BME280;51094;53.864;27.676;2024-03-17T05:53:31;98708.44;;;7.51;80.46
64679;BME280;51094;53.864;27.676;2024-03-17T05:56:04;98701.19;;;7.44;80.26
64679;BME280;51094;53.864;27.676;2024-03-17T05:58:30;98703.56;;;7.34;80.36
64679;BME280;51094;53.864;27.676;2024-03-17T06:00:56;98670.72;;;7.09;80.52
64679;BME280;51094;53.864;27.676;2024-03-17T06:03:24;98707.28;;;7.30;80.57
64679;BME280;51094;53.864;27.676;2024-03-17T06:05:52;98714.75;;;7.34;80.60
64679;BME280;51094;53.864;27.676;2024-03-17T06:08:19;98723.72;;;7.42;80.86
64679;BME280;51094;53.864;27.676;2024-03-17T06:10:47;98694.25;;;7.31;81.03
64679;BME280;51094;53.864;27.676;2024-03-17T06:13:14;98721.38;;;7.51;81.41
64679;BME280;51094;53.864;27.676;2024-03-17T06:15:43;98729.44;;;7.59;81.43
64679;BME280;51094;53.864;27.676;2024-03-17T06:18:13;98686.69;;;7.41;80.48
64679;BME280;51094;53.864;27.676;2024-03-17T06:20:47;98720.13;;;7.44;80.71
64679;BME280;51094;53.864;27.676;2024-03-17T06:23:14;98735.72;;;7.30;81.08
64679;BME280;51094;53.864;27.676;2024-03-17T06:25:45;98670.88;;;6.81;81.76
64679;BME280;51094;53.864;27.676;2024-03-17T06:28:15;98715.00;;;7.17;82.50
64679;BME280;51094;53.864;27.676;2024-03-17T06:30:43;98708.34;;;7.00;82.17
64679;BME280;51094;53.864;27.676;2024-03-17T06:33:14;98659.72;;;6.80;82.77
64679;BME280;51094;53.864;27.676;2024-03-17T06:35:47;98618.56;;;6.77;82.11
64679;BME280;51094;53.864;27.676;2024-03-17T06:38:13;98678.94;;;7.28;82.80
64679;BME280;51094;53.864;27.676;2024-03-17T06:40:53;98702.44;;;7.51;82.14
64679;BME280;51094;53.864;27.676;2024-03-17T06:43:20;98607.09;;;6.81;82.38
64679;BME280;51094;53.864;27.676;2024-03-17T06:45:59;98698.38;;;7.21;82.62
64679;BME280;51094;53.864;27.676;2024-03-17T06:48:28;98436.00;;;5.32;83.50
64679;BME280;51094;53.864;27.676;2024-03-17T06:50:55;98719.03;;;7.09;84.27
64679;BME280;51094;53.864;27.676;2024-03-17T06:53:22;98687.31;;;6.80;84.53
64679;BME280;51094;53.864;27.676;2024-03-17T06:56:01;98702.53;;;6.84;85.02
64679;BME280;51094;53.864;27.676;2024-03-17T06:58:28;98715.34;;;6.86;86.51
64679;BME280;51094;53.864;27.676;2024-03-17T07:00:56;98716.75;;;6.77;87.17
64679;BME280;51094;53.864;27.676;2024-03-17T07:03:27;98680.28;;;6.55;86.80
64679;BME280;51094;53.864;27.676;2024-03-17T07:06:03;98654.34;;;6.56;88.29
64679;BME280;51094;53.864;27.676;2024-03-17T07:08:30;98673.66;;;6.78;88.03
64679;BME280;51094;53.864;27.676;2024-03-17T07:11:01;98720.38;;;7.14;87.68
64679;BME280;51094;53.864;27.676;2024-03-17T07:13:36;98633.72;;;6.69;88.19
64679;BME280;51094;53.864;27.676;2024-03-17T07:16:04;98719.38;;;7.29;87.65
64679;BME280;51094;53.864;27.676;2024-03-17T07:18:32;98726.94;;;7.32;87.46
64679;BME280;51094;53.864;27.676;2024-03-17T07:21:00;98798.22;;;7.37;88.17
64679;BME280;51094;53.864;27.676;2024-03-17T07:23:27;98723.63;;;7.30;87.40
64679;BME280;51094;53.864;27.676;2024-03-17T07:25:57;98729.94;;;7.26;87.80
64679;BME280;51094;53.864;27.676;2024-03-17T07:28:25;98720.72;;;7.22;88.08
64679;BME280;51094;53.864;27.676;2024-03-17T07:30:55;98700.81;;;7.10;88.20
64679;BME280;51094;53.864;27.676;2024-03-17T07:33:23;98717.41;;;7.20;87.85
64679;BME280;51094;53.864;27.676;2024-03-17T07:35:58;98494.44;;;5.60;88.23
64679;BME280;51094;53.864;27.676;2024-03-17T07:38:27;98696.31;;;7.26;88.65
64679;BME280;51094;53.864;27.676;2024-03-17T07:41:05;98622.66;;;6.67;89.04
64679;BME280;51094;53.864;27.676;2024-03-17T07:43:36;98706.56;;;7.41;88.13
64679;BME280;51094;53.864;27.676;2024-03-17T07:46:05;98728.91;;;7.42;88.10
64679;BME280;51094;53.864;27.676;2024-03-17T07:48:34;98721.88;;;7.44;88.39
64679;BME280;51094;53.864;27.676;2024-03-17T07:51:02;98665.94;;;6.90;86.97
64679;BME280;51094;53.864;27.676;2024-03-17T07:53:42;98709.78;;;7.31;88.69
64679;BME280;51094;53.864;27.676;2024-03-17T07:56:12;98711.22;;;7.36;88.97
64679;BME280;51094;53.864;27.676;2024-03-17T07:58:40;98742.88;;;7.26;88.85
64679;BME280;51094;53.864;27.676;2024-03-17T08:01:13;98800.41;;;7.43;88.91
64679;BME280;51094;53.864;27.676;2024-03-17T08:03:41;98718.97;;;7.48;88.82
64679;BME280;51094;53.864;27.676;2024-03-17T08:06:10;98717.13;;;7.50;89.01
64679;BME280;51094;53.864;27.676;2024-03-17T08:08:39;98718.25;;;7.33;88.70
64679;BME280;51094;53.864;27.676;2024-03-17T08:11:05;98681.06;;;7.09;88.60
64679;BME280;51094;53.864;27.676;2024-03-17T08:13:32;98716.91;;;7.28;89.00
64679;BME280;51094;53.864;27.676;2024-03-17T08:16:05;98718.34;;;7.32;89.23
64679;BME280;51094;53.864;27.676;2024-03-17T08:18:33;98722.91;;;7.41;90.43
64679;BME280;51094;53.864;27.676;2024-03-17T08:21:03;98721.88;;;7.44;89.11
64679;BME280;51094;53.864;27.676;2024-03-17T08:23:33;98765.66;;;7.47;89.75
64679;BME280;51094;53.864;27.676;2024-03-17T08:26:03;98728.31;;;7.51;89.16
64679;BME280;51094;53.864;27.676;2024-03-17T08:28:30;98728.81;;;7.56;89.57
64679;BME280;51094;53.864;27.676;2024-03-17T08:31:00;98724.38;;;7.58;89.23
64679;BME280;51094;53.864;27.676;2024-03-17T08:33:27;98724.78;;;7.52;89.53
64679;BME280;51094;53.864;27.676;2024-03-17T08:36:07;98733.69;;;7.48;89.79
64679;BME280;51094;53.864;27.676;2024-03-17T08:38:35;98734.06;;;7.42;89.88
64679;BME280;51094;53.864;27.676;2024-03-17T08:41:06;98732.22;;;7.44;89.97
64679;BME280;51094;53.864;27.676;2024-03-17T08:43:33;98671.22;;;6.89;89.58
64679;BME280;51094;53.864;27.676;2024-03-17T08:46:03;98666.03;;;6.89;89.90
64679;BME280;51094;53.864;27.676;2024-03-17T08:48:35;98761.88;;;7.25;89.09
64679;BME280;51094;53.864;27.676;2024-03-17T08:51:02;98751.28;;;7.55;90.11
64679;BME280;51094;53.864;27.676;2024-03-17T08:53:31;98754.63;;;7.70;88.78
64679;BME280;51094;53.864;27.676;2024-03-17T08:55:58;98724.91;;;7.63;88.37
64679;BME280;51094;53.864;27.676;2024-03-17T08:58:26;98623.66;;;7.04;87.03
64679;BME280;51094;53.864;27.676;2024-03-17T09:00:54;98758.34;;;7.91;86.78
64679;BME280;51094;53.864;27.676;2024-03-17T09:03:22;98743.41;;;7.95;86.82
64679;BME280;51094;53.864;27.676;2024-03-17T09:05:48;98757.81;;;7.99;85.51
64679;BME280;51094;53.864;27.676;2024-03-17T09:08:23;98766.72;;;7.95;85.44
64679;BME280;51094;53.864;27.676;2024-03-17T09:10:52;98764.97;;;7.95;84.85
64679;BME280;51094;53.864;27.676;2024-03-17T09:13:20;98772.63;;;7.84;82.74
64679;BME280;51094;53.864;27.676;2024-03-17T09:15:58;98757.53;;;7.78;83.31
64679;BME280;51094;53.864;27.676;2024-03-17T09:18:33;98757.91;;;7.97;83.82
64679;BME280;51094;53.864;27.676;2024-03-17T09:21:06;98743.00;;;7.88;83.59
64679;BME280;51094;53.864;27.676;2024-03-17T09:23:36;98749.53;;;8.07;83.00
64679;BME280;51094;53.864;27.676;2024-03-17T09:26:07;98767.88;;;8.16;82.91
64679;BME280;51094;53.864;27.676;2024-03-17T09:28:46;98758.13;;;8.20;81.46
64679;BME280;51094;53.864;27.676;2024-03-17T09:31:12;98763.09;;;8.10;81.03
64679;BME280;51094;53.864;27.676;2024-03-17T09:33:38;98768.50;;;8.07;80.94
64679;BME280;51094;53.864;27.676;2024-03-17T09:36:09;98773.97;;;8.02;80.55
64679;BME280;51094;53.864;27.676;2024-03-17T09:38:37;98787.34;;;7.96;79.74
64679;BME280;51094;53.864;27.676;2024-03-17T09:41:06;98777.28;;;7.92;80.15
64679;BME280;51094;53.864;27.676;2024-03-17T09:43:40;98757.44;;;7.80;79.58
64679;BME280;51094;53.864;27.676;2024-03-17T09:46:07;98681.72;;;7.25;79.69
64679;BME280;51094;53.864;27.676;2024-03-17T09:48:34;98829.16;;;7.78;78.74
64679;BME280;51094;53.864;27.676;2024-03-17T09:51:04;98713.44;;;7.15;79.18
64679;BME280;51094;53.864;27.676;2024-03-17T09:53:32;98792.78;;;7.54;78.73
64679;BME280;51094;53.864;27.676;2024-03-17T09:56:02;98791.94;;;7.53;78.13
64679;BME280;51094;53.864;27.676;2024-03-17T09:58:30;98757.66;;;7.24;78.64
64679;BME280;51094;53.864;27.676;2024-03-17T10:00:56;98757.44;;;7.27;78.78
64679;BME280;51094;53.864;27.676;2024-03-17T10:06:14;98759.50;;;7.22;78.88
64679;BME280;51094;53.864;27.676;2024-03-17T10:11:11;98755.59;;;7.42;78.33
64679;BME280;51094;53.864;27.676;2024-03-17T10:13:39;98785.38;;;7.75;77.92
64679;BME280;51094;53.864;27.676;2024-03-17T10:16:05;98793.63;;;7.67;77.15
64679;BME280;51094;53.864;27.676;2024-03-17T10:18:32;98759.31;;;7.25;76.72
64679;BME280;51094;53.864;27.676;2024-03-17T10:20:58;98766.91;;;7.14;76.65
64679;BME280;51094;53.864;27.676;2024-03-17T10:23:24;98789.94;;;7.05;77.01
64679;BME280;51094;53.864;27.676;2024-03-17T10:25:51;98761.31;;;6.81;77.41
64679;BME280;51094;53.864;27.676;2024-03-17T10:28:18;98786.81;;;6.73;78.22
64679;BME280;51094;53.864;27.676;2024-03-17T10:30:59;98791.94;;;7.14;78.07
64679;BME280;51094;53.864;27.676;2024-03-17T10:33:26;98793.38;;;7.32;78.16
64679;BME280;51094;53.864;27.676;2024-03-17T10:36:00;98798.00;;;7.40;77.63
64679;BME280;51094;53.864;27.676;2024-03-17T10:38:28;98706.44;;;6.77;77.28
64679;BME280;51094;53.864;27.676;2024-03-17T10:40:54;98799.16;;;7.36;76.45
64679;BME280;51094;53.864;27.676;2024-03-17T10:43:20;98591.13;;;5.95;76.38
64679;BME280;51094;53.864;27.676;2024-03-17T10:45:54;98728.72;;;6.92;76.75
64679;BME280;51094;53.864;27.676;2024-03-17T10:48:26;98770.72;;;7.36;77.23
64679;BME280;51094;53.864;27.676;2024-03-17T10:50:59;98840.50;;;7.62;76.59
64679;BME280;51094;53.864;27.676;2024-03-17T10:53:26;98807.00;;;7.86;76.44
64679;BME280;51094;53.864;27.676;2024-03-17T10:56:03;98824.38;;;7.84;75.32
64679;BME280;51094;53.864;27.676;2024-03-17T10:58:44;98832.44;;;7.67;75.55
64679;BME280;51094;53.864;27.676;2024-03-17T11:01:16;98794.69;;;7.77;75.26
64679;BME280;51094;53.864;27.676;2024-03-17T11:03:46;98796.13;;;7.81;74.41
64679;BME280;51094;53.864;27.676;2024-03-17T11:06:13;98642.03;;;6.74;74.51
64679;BME280;51094;53.864;27.676;2024-03-17T11:08:39;98809.16;;;7.67;74.22
64679;BME280;51094;53.864;27.676;2024-03-17T11:11:11;98804.16;;;7.51;73.86
64679;BME280;51094;53.864;27.676;2024-03-17T11:13:39;98796.09;;;7.16;72.70
64679;BME280;51094;53.864;27.676;2024-03-17T11:16:25;98805.91;;;6.84;74.24
64679;BME280;51094;53.864;27.676;2024-03-17T11:18:51;98815.88;;;6.76;74.64
64679;BME280;51094;53.864;27.676;2024-03-17T11:21:21;98690.34;;;5.76;75.49
64679;BME280;51094;53.864;27.676;2024-03-17T11:23:59;98796.81;;;6.22;75.88
64679;BME280;51094;53.864;27.676;2024-03-17T11:26:33;98822.84;;;6.33;76.24
64679;BME280;51094;53.864;27.676;2024-03-17T11:29:01;98654.22;;;5.19;75.65
64679;BME280;51094;53.864;27.676;2024-03-17T11:31:37;98794.81;;;5.98;76.25
64679;BME280;51094;53.864;27.676;2024-03-17T11:34:31;98738.97;;;5.67;76.87
64679;BME280;51094;53.864;27.676;2024-03-17T11:36:58;98800.03;;;6.11;77.11
64679;BME280;51094;53.864;27.676;2024-03-17T11:39:51;98829.47;;;6.23;76.37
64679;BME280;51094;53.864;27.676;2024-03-17T11:42:25;98862.78;;;6.27;77.22
64679;BME280;51094;53.864;27.676;2024-03-17T11:44:59;98809.38;;;6.28;76.26
64679;BME280;51094;53.864;27.676;2024-03-17T11:47:34;98835.47;;;6.23;74.60
64679;BME280;51094;53.864;27.676;2024-03-17T11:50:02;98909.56;;;6.07;74.76
64679;BME280;51094;53.864;27.676;2024-03-17T11:52:33;98854.16;;;5.98;74.20
64679;BME280;51094;53.864;27.676;2024-03-17T11:54:59;98843.09;;;6.11;74.91
64679;BME280;51094;53.864;27.676;2024-03-17T11:57:26;98783.66;;;5.98;73.81
64679;BME280;51094;53.864;27.676;2024-03-17T11:59:56;98842.66;;;6.32;72.40
64679;BME280;51094;53.864;27.676;2024-03-17T12:02:27;98865.38;;;6.42;73.35
64679;BME280;51094;53.864;27.676;2024-03-17T12:04:53;98838.31;;;6.61;73.85
64679;BME280;51094;53.864;27.676;2024-03-17T12:07:23;98554.84;;;4.71;72.27
64679;BME280;51094;53.864;27.676;2024-03-17T12:09:52;98777.31;;;6.04;69.31
64679;BME280;51094;53.864;27.676;2024-03-17T12:12:28;98814.91;;;6.22;70.05
64679;BME280;51094;53.864;27.676;2024-03-17T12:15:01;98754.63;;;5.94;69.19
64679;BME280;51094;53.864;27.676;2024-03-17T12:17:28;98772.50;;;5.97;67.90
64679;BME280;51094;53.864;27.676;2024-03-17T12:19:54;98842.19;;;6.68;67.05
64679;BME280;51094;53.864;27.676;2024-03-17T12:22:25;98844.50;;;6.73;65.10
64679;BME280;51094;53.864;27.676;2024-03-17T12:24:56;98820.50;;;6.71;64.18
64679;BME280;51094;53.864;27.676;2024-03-17T12:27:25;98818.22;;;6.93;62.64
64679;BME280;51094;53.864;27.676;2024-03-17T12:29:53;98832.75;;;7.23;61.69
64679;BME280;51094;53.864;27.676;2024-03-17T12:32:24;98842.72;;;7.42;62.30
64679;BME280;51094;53.864;27.676;2024-03-17T12:34:52;98838.25;;;7.71;63.27
64679;BME280;51094;53.864;27.676;2024-03-17T12:37:19;98840.88;;;8.09;64.07
64679;BME280;51094;53.864;27.676;2024-03-17T12:39:46;98817.19;;;8.15;60.89
64679;BME280;51094;53.864;27.676;2024-03-17T12:42:30;98815.38;;;8.28;61.98
64679;BME280;51094;53.864;27.676;2024-03-17T12:45:02;98886.09;;;8.43;58.57
64679;BME280;51094;53.864;27.676;2024-03-17T12:47:30;98830.44;;;8.36;59.66
64679;BME280;51094;53.864;27.676;2024-03-17T12:49:58;98842.56;;;8.22;58.54
64679;BME280;51094;53.864;27.676;2024-03-17T12:52:28;98839.28;;;7.81;59.08
64679;BME280;51094;53.864;27.676;2024-03-17T12:54:59;98838.28;;;7.44;60.02
64679;BME280;51094;53.864;27.676;2024-03-17T12:57:44;98590.97;;;5.56;61.51
64679;BME280;51094;53.864;27.676;2024-03-17T13:00:30;98825.41;;;7.03;63.18
64679;BME280;51094;53.864;27.676;2024-03-17T13:03:00;98842.91;;;7.39;62.75
64679;BME280;51094;53.864;27.676;2024-03-17T13:05:27;98842.47;;;7.59;63.11
64679;BME280;51094;53.864;27.676;2024-03-17T13:07:56;98846.69;;;8.12;63.55
64679;BME280;51094;53.864;27.676;2024-03-17T13:10:24;98845.25;;;8.59;60.60
64679;BME280;51094;53.864;27.676;2024-03-17T13:13:04;98793.31;;;8.60;56.90
64679;BME280;51094;53.864;27.676;2024-03-17T13:15:35;98809.50;;;8.39;57.40
64679;BME280;51094;53.864;27.676;2024-03-17T13:18:05;98818.00;;;8.41;58.37
64679;BME280;51094;53.864;27.676;2024-03-17T13:20:31;98697.06;;;7.79;58.05